Time;durP1;ratioP1;P1;durP2;ratioP2;P2;SDS_P1;SDS_P2;PMS_P1;PMS_P2;Temp;Humidity;BMP_temperature;BMP_pressure;BME280_temperature;BME280_humidity;BME280_pressure;Samples;Min_cycle;Max_cycle;Signal;HPM_P1;HPM_P2
2022/11/30 00:00:02;;;;;;;;;40.75;31.00;;;;;9.12;68.93;101594.53;4883003;29;45849;-60
2022/11/30 00:02:28;;;;;;;;;33.75;28.50;;;;;9.00;69.22;101588.59;4883426;29;45335;-59
2022/11/30 00:04:54;;;;;;;;;30.20;27.60;;;;;9.06;69.27;101588.72;4900034;29;45398;-59
2022/11/30 00:07:21;;;;;;;;;21.00;18.00;;;;;9.09;68.95;101593.84;4900014;29;46062;-59
2022/11/30 00:09:47;;;;;;;;;36.00;28.40;;;;;9.10;68.95;101589.22;4898885;29;45330;-61
2022/11/30 00:12:12;;;;;;;;;39.00;30.25;;;;;9.11;69.66;101592.81;4899832;29;45414;-60
2022/11/30 00:14:38;;;;;;;;;43.75;33.50;;;;;9.02;69.31;101583.81;4900565;29;45570;-60
2022/11/30 00:17:03;;;;;;;;;36.00;30.50;;;;;8.94;68.91;101571.00;4899718;29;45382;-60
2022/11/30 00:19:29;;;;;;;;;35.75;28.25;;;;;8.95;69.64;101573.56;4900038;29;45441;-61
2022/11/30 00:21:54;;;;;;;;;38.75;29.75;;;;;8.99;69.26;101575.94;4882883;29;45420;-60
2022/11/30 00:24:19;;;;;;;;;29.75;26.50;;;;;9.00;69.47;101574.91;4900250;29;45393;-60
2022/11/30 00:26:45;;;;;;;;;32.75;28.75;;;;;8.88;69.31;101553.44;4899854;29;46351;-60
2022/11/30 00:29:10;;;;;;;;;34.75;27.75;;;;;8.99;69.38;101564.97;4899651;29;45428;-60
2022/11/30 00:31:36;;;;;;;;;32.50;27.25;;;;;9.09;69.24;101571.09;4900051;29;45353;-60
2022/11/30 00:34:01;;;;;;;;;30.25;26.25;;;;;9.14;69.97;101567.81;4900112;29;45362;-60
2022/11/30 00:36:27;;;;;;;;;34.75;27.25;;;;;9.14;69.28;101567.81;4899423;29;46880;-60
2022/11/30 00:38:53;;;;;;;;;27.50;24.00;;;;;9.13;68.79;101568.84;4899525;29;45438;-60
2022/11/30 00:41:18;;;;;;;;;23.75;20.50;;;;;9.10;68.97;101567.31;4883001;29;45402;-60
2022/11/30 00:43:44;;;;;;;;;33.25;28.00;;;;;9.12;69.34;101567.13;4900166;29;45419;-60
2022/11/30 00:46:09;;;;;;;;;23.75;16.00;;;;;9.15;69.05;101564.88;4880727;28;46392;-60
2022/11/30 00:48:36;;;;;;;;;38.75;30.00;;;;;9.07;69.73;101560.31;4875948;29;45368;-60
2022/11/30 00:51:01;;;;;;;;;36.00;30.60;;;;;9.15;69.16;101558.53;4848530;29;45499;-59
2022/11/30 00:53:27;;;;;;;;;36.75;29.00;;;;;9.13;69.30;101557.88;4880237;29;45407;-60
2022/11/30 00:55:52;;;;;;;;;33.00;29.50;;;;;8.52;69.96;101471.88;4863501;29;46096;-60
2022/11/30 00:58:18;;;;;;;;;35.50;25.75;;;;;8.97;69.14;101553.38;4880459;29;45426;-59
2022/11/30 01:00:44;;;;;;;;;37.25;28.50;;;;;8.87;69.60;101559.09;4880572;29;45382;-59
2022/11/30 01:03:09;;;;;;;;;34.50;27.25;;;;;8.85;70.35;101562.00;4880268;29;45517;-59
2022/11/30 01:05:35;;;;;;;;;32.00;29.75;;;;;8.72;70.29;101548.03;4880707;29;46383;-59
2022/11/30 01:08:01;;;;;;;;;40.00;29.25;;;;;8.73;71.01;101558.81;4873022;29;45533;-59
2022/11/30 01:10:26;;;;;;;;;36.00;29.60;;;;;8.79;69.92;101563.56;4882213;29;45295;-59
2022/11/30 01:12:56;;;;;;;;;35.75;31.00;;;;;8.83;69.70;101564.06;4882287;29;45516;-60
2022/11/30 01:15:21;;;;;;;;;32.20;26.20;;;;;8.77;70.02;101551.97;4882000;29;46398;-60
2022/11/30 01:17:47;;;;;;;;;38.00;33.50;;;;;8.79;70.60;101569.03;4899290;29;45430;-59
2022/11/30 01:20:12;;;;;;;;;37.25;28.50;;;;;8.82;70.18;101573.31;4898871;29;45436;-60
2022/11/30 01:22:38;;;;;;;;;33.00;29.25;;;;;8.55;69.67;101537.19;4882517;29;45477;-60
2022/11/30 01:25:04;;;;;;;;;31.75;29.50;;;;;8.75;69.94;101564.13;4881916;29;46957;-60
2022/11/30 01:27:29;;;;;;;;;34.00;28.00;;;;;8.78;70.61;101552.78;4898794;29;45422;-60
2022/11/30 01:29:55;;;;;;;;;30.50;25.25;;;;;8.40;70.02;101504.22;4899320;29;45432;-60
2022/11/30 01:32:21;;;;;;;;;32.75;28.50;;;;;8.47;69.85;101532.56;4882375;29;45379;-60
2022/11/30 01:34:46;;;;;;;;;35.50;29.25;;;;;8.71;70.26;101558.16;4899030;29;46239;-60
2022/11/30 01:37:12;;;;;;;;;33.25;30.25;;;;;8.67;70.21;101559.53;4898813;29;45298;-59
2022/11/30 01:39:37;;;;;;;;;35.50;29.75;;;;;8.34;70.43;101527.69;4898829;29;45255;-60
2022/11/30 01:42:03;;;;;;;;;34.50;28.50;;;;;8.61;70.40;101562.97;4899091;29;45352;-60
2022/11/30 01:44:29;;;;;;;;;30.00;27.50;;;;;8.47;70.54;101521.63;4881638;29;47420;-60
2022/11/30 01:46:58;;;;;;;;;32.75;27.00;;;;;8.76;70.44;101566.66;4863621;28;45512;-60
2022/11/30 01:49:31;;;;;;;;;32.20;27.60;;;;;8.64;69.50;101557.16;4879885;29;45407;-59
2022/11/30 01:52:27;;;;;;;;;38.00;27.80;;;;;8.72;70.11;101570.81;4848083;29;45621;-60
2022/11/30 01:54:55;;;;;;;;;38.00;30.80;;;;;8.81;69.90;101575.19;4876145;29;45989;-60
2022/11/30 01:57:40;;;;;;;;;26.40;19.00;;;;;8.74;69.57;101549.56;4847685;29;45457;-61
2022/11/30 02:00:08;;;;;;;;;35.00;29.80;;;;;8.84;69.20;101556.69;4865874;29;45369;-60
2022/11/30 02:02:49;;;;;;;;;41.40;30.20;;;;;8.57;70.01;101526.06;4879758;29;45307;-60
2022/11/30 02:05:15;;;;;;;;;30.00;26.60;;;;;8.77;68.80;101571.13;4879640;29;45677;-60
2022/11/30 02:07:40;;;;;;;;;33.00;26.25;;;;;8.79;69.93;101562.72;4867967;29;45505;-60
2022/11/30 02:10:06;;;;;;;;;29.75;26.00;;;;;8.78;69.51;101555.53;4881580;29;45483;-60
2022/11/30 02:12:49;;;;;;;;;31.50;23.00;;;;;8.87;69.66;101559.94;4898746;29;45197;-60
2022/11/30 02:15:20;;;;;;;;;32.80;28.20;;;;;8.97;69.79;101559.72;4882065;29;46289;-60
2022/11/30 02:18:11;;;;;;;;;38.40;30.40;;;;;8.94;68.96;101560.91;4881507;29;45354;-60
2022/11/30 02:20:51;;;;;;;;;30.60;27.00;;;;;8.97;68.92;101559.72;4883844;29;45342;-60
2022/11/30 02:23:21;;;;;;;;;36.00;27.80;;;;;8.91;69.14;101565.91;4898525;29;45457;-59
2022/11/30 02:26:19;;;;;;;;;34.80;28.20;;;;;8.84;69.40;101565.75;4865436;29;47566;-59
2022/11/30 02:28:56;;;;;;;;;30.00;22.40;;;;;8.52;69.56;101524.72;4881309;29;45387;-59
2022/11/30 02:31:39;;;;;;;;;35.20;27.00;;;;;8.58;69.17;101534.09;4898183;29;45445;-59
2022/11/30 02:34:04;;;;;;;;;23.20;21.00;;;;;8.75;69.27;101551.25;4868852;29;45408;-59
2022/11/30 02:36:30;;;;;;;;;27.50;25.00;;;;;8.56;68.32;101518.88;4884750;29;47327;-58
2022/11/30 02:38:55;;;;;;;;;32.50;27.50;;;;;8.90;68.65;101572.38;4884003;29;45316;-59
2022/11/30 02:41:21;;;;;;;;;26.50;21.75;;;;;8.86;67.70;101568.31;4884360;29;45367;-61
2022/11/30 02:43:46;;;;;;;;;31.25;28.00;;;;;8.60;68.46;101528.44;4901656;29;45340;-61
2022/11/30 02:46:53;;;;;;;;;29.25;22.75;;;;;8.81;68.19;101563.41;4901125;29;46152;-61
2022/11/30 02:49:30;;;;;;;;;27.40;21.60;;;;;8.75;68.24;101564.13;4848690;29;45850;-61
2022/11/30 02:51:56;;;;;;;;;22.80;18.40;;;;;8.78;66.93;101566.47;4884264;29;45391;-61
2022/11/30 02:54:22;;;;;;;;;22.25;17.75;;;;;8.67;67.80;101567.75;4884050;29;45324;-60
2022/11/30 02:56:47;;;;;;;;;24.00;18.00;;;;;8.51;67.43;101554.97;4884242;29;45368;-61
2022/11/30 02:59:13;;;;;;;;;24.75;24.75;;;;;8.54;68.29;101557.38;4883749;29;45383;-61
2022/11/30 03:01:38;;;;;;;;;21.50;19.75;;;;;8.64;68.10;101565.38;4901108;29;45300;-61
2022/11/30 03:04:04;;;;;;;;;27.75;22.25;;;;;8.63;68.58;101566.38;4900940;29;45308;-61
2022/11/30 03:06:29;;;;;;;;;26.00;21.25;;;;;8.57;68.38;101561.63;4868309;29;46039;-59
2022/11/30 03:08:55;;;;;;;;;25.25;20.25;;;;;8.72;68.32;101570.81;4900588;29;45375;-62
2022/11/30 03:11:20;;;;;;;;;23.50;18.00;;;;;8.72;68.41;101578.16;4883558;29;45376;-61
2022/11/30 03:13:46;;;;;;;;;21.25;18.50;;;;;8.72;68.39;101570.81;4901110;29;45198;-62
2022/11/30 03:16:12;;;;;;;;;19.75;18.50;;;;;8.67;67.80;101557.66;4867553;29;45563;-60
2022/11/30 03:18:38;;;;;;;;;26.00;23.25;;;;;8.51;67.09;101522.13;4883619;29;45536;-60
2022/11/30 03:21:08;;;;;;;;;22.80;19.00;;;;;8.79;67.22;101570.91;4883994;29;45353;-60
2022/11/30 03:23:34;;;;;;;;;21.40;20.20;;;;;8.66;67.37;101575.09;4883606;29;45338;-60
2022/11/30 03:26:00;;;;;;;;;19.20;16.40;;;;;8.59;67.64;101576.00;4883589;29;46788;-60
2022/11/30 03:28:25;;;;;;;;;23.75;19.25;;;;;8.52;67.80;101579.44;4900635;29;45298;-61
2022/11/30 03:30:51;;;;;;;;;22.00;21.25;;;;;8.39;68.87;101581.88;4900975;29;45333;-60
2022/11/30 03:33:17;;;;;;;;;17.25;17.00;;;;;8.39;68.71;101579.13;4900715;29;45436;-61
2022/11/30 03:35:43;;;;;;;;;16.25;13.00;;;;;8.13;68.57;101541.94;4900431;29;46072;-60
2022/11/30 03:38:08;;;;;;;;;19.60;17.00;;;;;8.22;68.76;101584.63;4900258;29;45434;-60
2022/11/30 03:40:35;;;;;;;;;23.75;19.50;;;;;8.11;69.38;101585.03;4883396;29;45371;-60
2022/11/30 03:43:00;;;;;;;;;20.40;20.40;;;;;7.88;70.24;101561.16;4900624;29;45515;-60
2022/11/30 03:45:26;;;;;;;;;16.00;15.50;;;;;7.83;69.53;101547.16;4900750;29;45430;-60
2022/11/30 03:47:51;;;;;;;;;19.25;19.25;;;;;7.97;69.78;101579.25;4900753;29;45327;-60
2022/11/30 03:50:17;;;;;;;;;25.00;18.75;;;;;8.17;69.40;101594.41;4889870;28;45461;-61
2022/11/30 03:52:42;;;;;;;;;25.00;21.75;;;;;8.23;69.82;101597.28;4879816;29;46046;-60
2022/11/30 03:55:08;;;;;;;;;18.50;16.25;;;;;8.04;69.12;101557.53;4900736;29;46134;-60
2022/11/30 03:57:34;;;;;;;;;19.40;17.60;;;;;8.24;69.58;101596.28;4900366;29;45312;-60
2022/11/30 03:59:59;;;;;;;;;24.25;21.25;;;;;7.98;69.39;101570.03;4883260;29;45441;-60
2022/11/30 04:02:27;;;;;;;;;19.75;16.75;;;;;8.21;69.85;101601.25;4900585;29;45343;-60
2022/11/30 04:04:53;;;;;;;;;21.60;17.80;;;;;8.24;69.77;101609.94;4899974;29;45386;-60
2022/11/30 04:07:18;;;;;;;;;18.75;16.00;;;;;8.24;69.62;101609.94;4900212;29;45306;-60
2022/11/30 04:09:44;;;;;;;;;18.75;12.75;;;;;7.93;70.32;101566.09;4899793;29;45418;-60
2022/11/30 04:12:09;;;;;;;;;17.25;17.00;;;;;8.17;69.78;101608.09;4900689;29;45511;-60
2022/11/30 04:14:35;;;;;;;;;19.00;12.75;;;;;8.16;69.59;101600.91;4899671;29;46255;-60
2022/11/30 04:17:00;;;;;;;;;18.50;16.25;;;;;7.95;70.11;101577.72;4899977;29;45455;-59
2022/11/30 04:19:26;;;;;;;;;17.25;15.25;;;;;8.09;70.03;101625.34;4883104;29;45364;-60
2022/11/30 04:21:51;;;;;;;;;14.50;12.75;;;;;8.06;70.28;101621.09;4900325;29;45503;-60
2022/11/30 04:24:16;;;;;;;;;16.00;13.00;;;;;7.98;70.01;101623.84;4899852;29;45492;-60
2022/11/30 04:26:42;;;;;;;;;11.00;9.00;;;;;7.92;70.10;101619.06;4899693;29;45374;-60
2022/11/30 04:29:08;;;;;;;;;11.25;11.25;;;;;7.86;69.42;101596.00;4900111;29;45279;-60
2022/11/30 04:31:33;;;;;;;;;16.00;10.75;;;;;8.00;69.35;101629.97;4900313;29;45609;-61
2022/11/30 04:33:58;;;;;;;;;10.25;8.75;;;;;7.97;69.75;101614.81;4882417;29;47449;-61
2022/11/30 04:36:24;;;;;;;;;13.00;9.25;;;;;7.97;69.92;101620.25;4900205;29;45325;-61
2022/11/30 04:38:49;;;;;;;;;10.50;8.25;;;;;8.05;69.26;101634.94;4882404;29;45329;-60
2022/11/30 04:41:15;;;;;;;;;11.25;11.25;;;;;8.12;69.20;101631.31;4899813;29;45350;-59
2022/11/30 04:43:40;;;;;;;;;10.75;9.25;;;;;7.81;69.36;101590.19;4899352;29;45371;-59
2022/11/30 04:46:06;;;;;;;;;11.75;8.00;;;;;7.57;69.21;101570.94;4899529;29;45387;-61
2022/11/30 04:48:32;;;;;;;;;7.50;7.00;;;;;8.04;69.31;101635.94;4882791;29;45406;-60
2022/11/30 04:51:01;;;;;;;;;12.25;10.00;;;;;8.04;69.28;101642.28;4899302;29;45601;-62
2022/11/30 04:53:27;;;;;;;;;16.20;10.60;;;;;7.75;69.79;101607.28;4842655;28;45753;-61
2022/11/30 04:55:52;;;;;;;;;12.75;12.75;;;;;7.93;69.24;101640.75;4862919;29;45448;-61
2022/11/30 04:58:18;;;;;;;;;12.00;12.00;;;;;7.89;69.97;101655.78;4848114;29;45352;-61
2022/11/30 05:00:43;;;;;;;;;11.50;11.50;;;;;7.57;69.80;101602.84;4880752;29;45590;-60
2022/11/30 05:03:09;;;;;;;;;14.00;12.75;;;;;7.85;69.43;101646.25;4880067;29;45327;-60
2022/11/30 05:05:34;;;;;;;;;15.50;13.75;;;;;7.76;69.96;101650.00;4880622;29;45283;-60
2022/11/30 05:08:00;;;;;;;;;10.00;10.00;;;;;7.57;70.81;101647.44;4868640;29;45452;-61
2022/11/30 05:10:26;;;;;;;;;11.75;8.00;;;;;7.49;69.63;101639.22;4899327;29;45192;-60
2022/11/30 05:12:51;;;;;;;;;13.80;9.80;;;;;7.38;70.17;101640.41;4882292;29;45572;-61
2022/11/30 05:15:17;;;;;;;;;12.00;11.25;;;;;7.31;71.17;101636.66;4898724;29;45397;-61
2022/11/30 05:17:42;;;;;;;;;12.50;12.50;;;;;7.33;71.18;101640.91;4899272;29;45274;-61
2022/11/30 05:20:08;;;;;;;;;8.50;8.50;;;;;7.14;71.16;101638.47;4899208;29;45834;-60
2022/11/30 05:22:34;;;;;;;;;11.50;10.50;;;;;7.12;71.18;101602.31;4898794;29;47166;-60
2022/11/30 05:24:59;;;;;;;;;10.75;10.25;;;;;7.24;71.04;101639.19;4898593;29;45292;-60
2022/11/30 05:27:25;;;;;;;;;11.50;11.50;;;;;7.35;70.67;101638.00;4898997;29;45425;-61
2022/11/30 05:29:51;;;;;;;;;9.00;7.50;;;;;7.19;70.61;101593.28;4899137;29;45576;-61
2022/11/30 05:32:16;;;;;;;;;11.00;9.25;;;;;7.42;70.26;101641.78;4898969;29;45929;-61
2022/11/30 05:34:41;;;;;;;;;8.50;8.50;;;;;7.49;69.89;101643.84;4898835;29;45360;-60
2022/11/30 05:37:07;;;;;;;;;12.50;12.50;;;;;7.53;69.60;101645.22;4899065;29;45369;-59
2022/11/30 05:39:33;;;;;;;;;17.00;8.00;;;;;7.60;69.80;101641.59;4898856;29;45363;-61
2022/11/30 05:41:58;;;;;;;;;10.50;9.00;;;;;7.29;69.29;101600.44;4899210;29;46929;-59
2022/11/30 05:44:23;;;;;;;;;8.50;8.50;;;;;7.62;69.67;101646.91;4898650;29;45330;-62
2022/11/30 05:46:49;;;;;;;;;9.25;7.50;;;;;7.32;68.82;101597.41;4882167;29;45479;-61
2022/11/30 05:49:14;;;;;;;;;11.50;9.25;;;;;7.69;68.91;101644.38;4881958;29;45384;-60
2022/11/30 05:51:40;;;;;;;;;16.75;9.00;;;;;7.72;68.02;101647.63;4898409;29;45809;-61
2022/11/30 05:54:05;;;;;;;;;9.75;7.00;;;;;7.69;68.30;101639.75;4875217;28;45407;-61
2022/11/30 05:56:31;;;;;;;;;13.00;11.00;;;;;7.68;68.57;101634.47;4898919;29;45388;-60
2022/11/30 05:58:56;;;;;;;;;10.50;10.00;;;;;7.68;68.29;101627.09;4899379;29;45591;-59
2022/11/30 06:01:24;;;;;;;;;11.50;11.00;;;;;7.72;68.32;101644.00;4898501;29;46497;-59
2022/11/30 06:03:49;;;;;;;;;14.00;8.00;;;;;7.66;68.15;101631.03;4898477;29;45373;-60
2022/11/30 06:06:15;;;;;;;;;9.00;8.50;;;;;7.69;67.72;101641.63;4898908;29;45368;-60
2022/11/30 06:08:40;;;;;;;;;12.00;11.25;;;;;7.72;68.48;101638.53;4881568;29;45491;-60
2022/11/30 06:11:06;;;;;;;;;8.75;7.50;;;;;7.68;68.16;101638.03;4898788;29;45464;-60
2022/11/30 06:13:31;;;;;;;;;10.75;9.75;;;;;7.64;69.27;101635.81;4898345;29;45395;-60
2022/11/30 06:15:58;;;;;;;;;15.00;12.50;;;;;7.45;68.69;101608.66;4898717;29;45364;-60
2022/11/30 06:18:24;;;;;;;;;10.00;10.00;;;;;7.48;69.33;101631.19;4898858;29;45160;-60
2022/11/30 06:20:49;;;;;;;;;8.50;8.50;;;;;7.59;69.24;101636.34;4881376;29;47278;-62
2022/11/30 06:23:15;;;;;;;;;8.50;6.50;;;;;7.57;69.10;101622.84;4898671;29;45269;-60
2022/11/30 06:25:40;;;;;;;;;11.50;7.50;;;;;7.43;68.85;101598.94;4881276;29;45431;-60
2022/11/30 06:28:09;;;;;;;;;10.25;8.00;;;;;7.72;69.20;101644.00;4898730;29;45337;-60
2022/11/30 06:30:35;;;;;;;;;13.20;10.00;;;;;7.73;68.75;101635.66;4897973;29;47650;-59
2022/11/30 06:33:00;;;;;;;;;14.00;11.00;;;;;7.64;69.16;101625.75;4898442;29;46316;-59
2022/11/30 06:35:26;;;;;;;;;11.50;9.75;;;;;7.72;68.95;101642.16;4898391;29;45429;-59
2022/11/30 06:37:51;;;;;;;;;16.75;11.75;;;;;7.73;68.72;101638.38;4880920;29;45464;-60
2022/11/30 06:40:17;;;;;;;;;13.75;11.00;;;;;7.73;69.20;101629.31;4898099;29;45487;-60
2022/11/30 06:42:42;;;;;;;;;12.50;11.50;;;;;7.75;68.97;101631.88;4880852;29;45386;-60
2022/11/30 06:45:08;;;;;;;;;14.00;13.75;;;;;7.84;68.60;101652.72;4898416;29;45442;-61
2022/11/30 06:47:34;;;;;;;;;10.00;10.00;;;;;7.58;68.91;101602.69;4880928;29;45686;-61
2022/11/30 06:49:59;;;;;;;;;15.50;15.25;;;;;7.58;68.67;101604.56;4897595;29;45466;-61
2022/11/30 06:52:25;;;;;;;;;14.25;11.25;;;;;7.41;68.83;101570.91;4894390;28;45374;-63
2022/11/30 06:54:50;;;;;;;;;13.75;11.25;;;;;7.82;69.13;101646.56;4875891;29;45372;-61
2022/11/30 06:57:16;;;;;;;;;15.50;12.50;;;;;7.73;69.35;101643.84;4881559;29;45324;-61
2022/11/30 06:59:42;;;;;;;;;14.00;11.50;;;;;7.78;69.09;101651.53;4897895;29;45654;-60
2022/11/30 07:02:13;;;;;;;;;16.75;13.00;;;;;7.80;69.34;101648.63;4897949;29;45725;-59
2022/11/30 07:04:39;;;;;;;;;18.80;12.00;;;;;7.94;69.31;101645.19;4897881;29;45233;-61
2022/11/30 07:07:06;;;;;;;;;17.75;15.25;;;;;7.81;68.57;101623.00;4898231;29;45347;-63
2022/11/30 07:09:32;;;;;;;;;21.00;14.80;;;;;7.98;68.74;101652.03;4897562;29;45442;-61
2022/11/30 07:11:57;;;;;;;;;17.25;14.75;;;;;7.96;68.51;101653.22;4897502;29;45807;-61
2022/11/30 07:14:24;;;;;;;;;19.75;16.75;;;;;7.79;69.25;101628.63;4897850;29;45267;-61
2022/11/30 07:16:49;;;;;;;;;18.40;15.60;;;;;7.99;68.69;101653.75;4898087;29;45405;-61
2022/11/30 07:19:15;;;;;;;;;20.75;13.75;;;;;7.91;69.11;101652.91;4899250;29;46817;-60
2022/11/30 07:21:40;;;;;;;;;16.00;13.00;;;;;7.89;68.66;101658.53;4901099;29;45479;-60
2022/11/30 07:26:50;;;;;;;;;15.20;13.00;;;;;7.96;68.57;101658.72;4901181;29;45959;-60
2022/11/30 07:29:15;;;;;;;;;20.25;18.00;;;;;7.89;69.33;101660.41;4900886;29;45685;-61
2022/11/30 07:31:41;;;;;;;;;17.25;16.50;;;;;7.90;68.91;101670.31;4900841;29;45398;-60
2022/11/30 07:34:08;;;;;;;;;22.00;16.75;;;;;7.57;69.34;101621.97;4900896;29;45431;-61
2022/11/30 07:36:33;;;;;;;;;21.40;17.40;;;;;7.85;69.19;101670.84;4884265;29;45437;-61
2022/11/30 07:38:59;;;;;;;;;17.75;14.75;;;;;7.89;69.35;101677.66;4899963;29;45528;-60
2022/11/30 07:41:24;;;;;;;;;19.25;15.00;;;;;7.45;68.80;101608.66;4900633;29;45320;-59
2022/11/30 07:43:50;;;;;;;;;21.50;19.75;;;;;7.91;69.11;101681.09;4900897;29;45340;-59
2022/11/30 07:46:16;;;;;;;;;24.00;18.00;;;;;7.98;69.29;101683.97;4900412;29;45335;-59
2022/11/30 07:48:41;;;;;;;;;19.25;16.75;;;;;7.96;68.59;101675.09;4900761;29;46135;-61
2022/11/30 07:51:11;;;;;;;;;23.00;21.25;;;;;8.04;68.40;101685.16;4900180;29;45742;-61
2022/11/30 07:53:36;;;;;;;;;29.60;23.40;;;;;7.96;68.92;101684.16;4864418;28;46105;-61
2022/11/30 07:56:14;;;;;;;;;25.75;20.75;;;;;8.02;69.00;101689.97;4900348;29;45617;-60
2022/11/30 07:58:40;;;;;;;;;25.40;20.60;;;;;7.78;69.12;101669.81;4878561;29;45797;-60
2022/11/30 08:01:07;;;;;;;;;22.50;15.50;;;;;7.95;69.12;101690.66;4878581;29;45539;-60
2022/11/30 08:03:34;;;;;;;;;20.80;15.40;;;;;8.02;69.03;101698.16;4863081;29;45434;-61
2022/11/30 08:06:05;;;;;;;;;17.60;16.60;;;;;8.08;68.51;101700.22;4880074;29;45591;-61
2022/11/30 08:08:32;;;;;;;;;18.20;17.20;;;;;8.09;68.15;101701.91;4885979;29;47689;-61
2022/11/30 08:10:57;;;;;;;;;15.80;13.60;;;;;8.03;67.87;101700.72;4865993;29;45455;-61
2022/11/30 08:13:23;;;;;;;;;18.75;17.00;;;;;7.57;68.51;101643.81;4886022;29;45404;-59
2022/11/30 08:15:49;;;;;;;;;20.60;18.20;;;;;7.95;68.76;101703.47;4879840;29;45451;-61
2022/11/30 08:18:15;;;;;;;;;13.25;12.25;;;;;7.94;68.84;101697.13;4879405;29;46693;-60
2022/11/30 08:20:40;;;;;;;;;17.50;17.50;;;;;8.01;68.99;101708.25;4862236;29;45472;-60
2022/11/30 08:23:06;;;;;;;;;20.00;17.50;;;;;8.09;69.14;101705.50;4879893;29;45493;-60
2022/11/30 08:25:33;;;;;;;;;22.00;18.25;;;;;8.12;68.69;101716.09;4878817;29;45716;-60
2022/11/30 08:27:59;;;;;;;;;20.40;18.40;;;;;8.05;68.35;101706.88;4862332;29;46655;-61
2022/11/30 08:30:24;;;;;;;;;17.60;14.80;;;;;7.94;68.96;101709.94;4878191;29;45378;-60
2022/11/30 08:32:50;;;;;;;;;26.25;16.25;;;;;7.79;68.74;101690.66;4879828;29;45382;-61
2022/11/30 08:35:16;;;;;;;;;18.75;11.50;;;;;7.91;69.26;101719.38;4879971;29;45633;-60
2022/11/30 08:37:41;;;;;;;;;20.25;15.50;;;;;7.88;68.99;101695.09;4861277;29;45576;-60
2022/11/30 08:40:07;;;;;;;;;18.25;16.75;;;;;8.05;68.26;101728.75;4878899;29;45328;-60
2022/11/30 08:42:33;;;;;;;;;19.00;17.40;;;;;8.11;69.42;101713.56;4862523;29;45450;-63
2022/11/30 08:44:58;;;;;;;;;20.50;16.25;;;;;8.17;68.57;101722.94;4879276;29;45442;-60
2022/11/30 08:47:24;;;;;;;;;24.25;17.25;;;;;8.19;68.86;101721.75;4879347;29;46118;-59
2022/11/30 08:49:49;;;;;;;;;19.00;16.00;;;;;8.24;68.85;101723.97;4878375;29;45357;-58
2022/11/30 08:52:15;;;;;;;;;25.50;20.75;;;;;8.21;68.50;101725.16;4861381;29;45753;-59
2022/11/30 08:54:44;;;;;;;;;17.50;15.50;;;;;8.22;68.60;101724.13;4862111;29;45617;-58
2022/11/30 08:57:10;;;;;;;;;22.60;18.20;;;;;7.56;68.32;101606.59;4837717;29;45700;-58
2022/11/30 08:59:35;;;;;;;;;24.25;16.00;;;;;7.95;68.62;101665.19;4886772;29;45299;-59
2022/11/30 09:02:01;;;;;;;;;19.75;16.50;;;;;8.27;68.75;101716.25;4879172;29;45464;-55
2022/11/30 09:04:26;;;;;;;;;21.25;18.00;;;;;8.31;68.79;101718.66;4879461;29;45257;-55
2022/11/30 09:06:52;;;;;;;;;21.75;18.00;;;;;8.36;68.38;101721.72;4878778;29;46161;-57
2022/11/30 09:09:17;;;;;;;;;30.00;23.75;;;;;8.17;68.61;101690.97;4882942;29;45954;-55
2022/11/30 09:11:43;;;;;;;;;23.00;20.25;;;;;8.36;68.24;101722.59;4873986;29;45433;-58
2022/11/30 09:14:08;;;;;;;;;26.75;17.00;;;;;8.41;68.59;101725.66;4867610;29;46566;-54
2022/11/30 09:16:34;;;;;;;;;28.75;21.00;;;;;8.18;68.33;101691.81;4865457;29;46453;-58
2022/11/30 09:19:00;;;;;;;;;23.00;21.20;;;;;8.40;67.76;101717.63;4877672;29;45500;-59
2022/11/30 09:21:25;;;;;;;;;25.25;19.00;;;;;8.50;67.99;101734.69;4860902;29;45351;-55
2022/11/30 09:23:51;;;;;;;;;22.50;18.25;;;;;8.54;67.70;101738.81;4877821;29;45537;-55
2022/11/30 09:26:18;;;;;;;;;22.25;19.50;;;;;8.31;67.19;101705.81;4878340;29;45712;-59
2022/11/30 09:28:44;;;;;;;;;22.00;18.80;;;;;8.56;68.01;101748.72;4878124;29;45321;-58
2022/11/30 09:31:14;;;;;;;;;27.80;20.20;;;;;8.54;67.91;101737.97;4877254;29;45410;-60
2022/11/30 09:33:40;;;;;;;;;27.80;21.60;;;;;8.14;67.42;101681.25;4862428;29;45745;-60
2022/11/30 09:36:10;;;;;;;;;25.25;23.25;;;;;8.58;67.16;101747.53;4846276;29;46352;-60
2022/11/30 09:38:36;;;;;;;;;24.60;18.80;;;;;8.59;67.72;101751.13;4861074;29;45830;-59
2022/11/30 09:41:35;;;;;;;;;26.75;21.25;;;;;8.60;67.69;101761.06;4877221;29;45525;-59
2022/11/30 09:44:14;;;;;;;;;25.00;21.00;;;;;8.41;67.39;101719.31;4878595;29;45444;-59
2022/11/30 09:47:29;;;;;;;;;25.40;23.60;;;;;8.63;67.52;101744.25;4877915;29;46776;-60
2022/11/30 09:49:55;;;;;;;;;20.00;18.40;;;;;8.71;67.14;101736.06;4795200;29;45752;-59
2022/11/30 09:52:33;;;;;;;;;31.00;19.25;;;;;8.66;66.89;101736.56;4877688;29;45287;-60
2022/11/30 09:55:05;;;;;;;;;28.20;19.60;;;;;8.66;66.54;101739.28;4862063;29;45383;-60
2022/11/30 09:57:43;;;;;;;;;25.00;21.80;;;;;8.27;66.97;101672.50;4831529;28;45855;-59
2022/11/30 10:00:14;;;;;;;;;22.80;21.20;;;;;8.77;66.27;101743.56;4846313;29;45418;-58
2022/11/30 10:02:39;;;;;;;;;22.60;17.80;;;;;8.85;67.61;101739.09;4861043;29;45426;-59
2022/11/30 10:05:15;;;;;;;;;27.50;24.50;;;;;8.84;66.68;101734.63;4877099;29;45341;-59
2022/11/30 10:08:06;;;;;;;;;29.80;27.20;;;;;8.63;65.96;101700.47;4861493;29;46607;-57
2022/11/30 10:10:39;;;;;;;;;25.80;20.20;;;;;8.85;66.79;101742.69;4880970;29;45429;-58
2022/11/30 10:13:23;;;;;;;;;30.00;26.20;;;;;8.80;65.80;101739.59;4879605;29;45469;-57
2022/11/30 10:16:21;;;;;;;;;27.00;22.80;;;;;8.72;66.63;101743.25;4891942;29;46043;-57
2022/11/30 10:19:05;;;;;;;;;26.20;20.00;;;;;8.51;66.07;101702.72;4864673;29;45685;-56
2022/11/30 10:21:37;;;;;;;;;24.40;18.00;;;;;8.64;66.62;101740.53;4862315;29;45467;-59
2022/11/30 10:24:28;;;;;;;;;27.60;23.40;;;;;8.68;66.74;101736.41;4878730;29;45344;-60
2022/11/30 10:26:55;;;;;;;;;29.80;24.60;;;;;8.58;66.70;101711.13;4862042;29;45464;-59
2022/11/30 10:29:31;;;;;;;;;26.00;24.40;;;;;8.80;67.19;101734.13;4878892;29;46183;-58
2022/11/30 10:31:58;;;;;;;;;24.20;23.60;;;;;8.87;67.06;101734.28;4878759;29;45297;-60
2022/11/30 10:34:30;;;;;;;;;30.40;24.40;;;;;8.88;66.91;101725.03;4860563;29;45474;-56
2022/11/30 10:37:11;;;;;;;;;38.60;30.80;;;;;8.79;66.46;101692.22;4845994;29;45765;-59
2022/11/30 10:39:43;;;;;;;;;38.20;29.20;;;;;9.11;66.56;101732.50;4860866;29;45745;-60
2022/11/30 10:42:18;;;;;;;;;37.80;25.60;;;;;9.05;66.20;101734.03;4848060;29;46019;-59
2022/11/30 10:44:45;;;;;;;;;32.20;27.80;;;;;8.87;66.59;101713.25;4850914;29;45841;-60
2022/11/30 10:47:19;;;;;;;;;31.00;26.00;;;;;8.89;66.35;101711.19;4844190;29;45487;-59
2022/11/30 10:49:48;;;;;;;;;32.40;27.00;;;;;8.88;66.43;101711.34;4858786;29;48110;-53
2022/11/30 10:52:19;;;;;;;;;26.00;24.40;;;;;8.80;66.77;101695.81;4874053;29;45285;-55
2022/11/30 10:54:45;;;;;;;;;33.40;24.60;;;;;9.01;66.91;101724.50;4862480;29;45639;-59
2022/11/30 10:57:13;;;;;;;;;24.25;22.75;;;;;8.93;65.91;101706.22;4844760;28;45496;-59
2022/11/30 10:59:49;;;;;;;;;27.20;22.20;;;;;8.97;65.38;101712.19;4863524;29;46436;-60
2022/11/30 11:02:37;;;;;;;;;33.20;32.20;;;;;9.00;66.30;101711.81;4863441;29;45422;-60
2022/11/30 11:05:25;;;;;;;;;32.40;25.20;;;;;9.02;65.94;101715.25;4880546;29;45326;-60
2022/11/30 11:07:53;;;;;;;;;32.20;23.40;;;;;9.08;65.78;101703.59;4866621;29;45574;-61
2022/11/30 11:10:36;;;;;;;;;29.80;23.80;;;;;9.30;65.23;101712.91;4851485;29;46310;-60
2022/11/30 11:13:01;;;;;;;;;29.20;26.20;;;;;8.98;64.43;101640.81;4864460;29;45509;-60
2022/11/30 11:15:29;;;;;;;;;44.75;37.00;;;;;9.30;64.52;101668.19;4899418;29;45402;-60
2022/11/30 11:18:24;;;;;;;;;25.00;24.20;;;;;9.60;63.85;101702.06;4882699;29;45463;-59
2022/11/30 11:21:01;;;;;;;;;34.80;25.80;;;;;9.48;64.61;101692.56;4883315;29;47628;-59
2022/11/30 11:23:38;;;;;;;;;26.00;26.00;;;;;9.51;64.60;101697.69;4882863;29;45423;-60
2022/11/30 11:26:14;;;;;;;;;42.80;33.40;;;;;9.26;65.08;101684.13;4884824;29;45538;-57